sensor_id;sensor_type;location;lat;lon;timestamp;P1;durP1;ratioP1;P2;durP2;ratioP2
59978;SDS011;45839;44.882;20.650;2023-07-30T00:01:57;9.90;;;5.72;;
59978;SDS011;45839;44.882;20.650;2023-07-30T00:04:24;9.07;;;5.35;;
59978;SDS011;45839;44.882;20.650;2023-07-30T00:06:50;10.35;;;6.13;;
59978;SDS011;45839;44.882;20.650;2023-07-30T00:09:16;10.95;;;5.63;;
59978;SDS011;45839;44.882;20.650;2023-07-30T00:11:42;9.30;;;4.93;;
59978;SDS011;45839;44.882;20.650;2023-07-30T00:14:08;10.13;;;5.18;;
59978;SDS011;45839;44.882;20.650;2023-07-30T00:16:34;9.23;;;5.57;;
59978;SDS011;45839;44.882;20.650;2023-07-30T00:19:00;9.93;;;5.68;;
59978;SDS011;45839;44.882;20.650;2023-07-30T00:21:26;9.23;;;5.07;;
59978;SDS011;45839;44.882;20.650;2023-07-30T00:23:52;9.82;;;5.40;;
59978;SDS011;45839;44.882;20.650;2023-07-30T00:26:18;9.80;;;5.85;;
59978;SDS011;45839;44.882;20.650;2023-07-30T00:28:45;8.55;;;5.53;;
59978;SDS011;45839;44.882;20.650;2023-07-30T00:31:11;10.68;;;5.80;;
59978;SDS011;45839;44.882;20.650;2023-07-30T00:33:37;11.32;;;5.43;;
59978;SDS011;45839;44.882;20.650;2023-07-30T00:36:03;8.95;;;5.40;;
59978;SDS011;45839;44.882;20.650;2023-07-30T00:38:29;11.57;;;5.45;;
59978;SDS011;45839;44.882;20.650;2023-07-30T00:40:55;9.77;;;5.60;;
59978;SDS011;45839;44.882;20.650;2023-07-30T00:43:21;9.15;;;5.97;;
59978;SDS011;45839;44.882;20.650;2023-07-30T00:45:47;10.85;;;5.93;;
59978;SDS011;45839;44.882;20.650;2023-07-30T00:48:14;8.43;;;5.88;;
59978;SDS011;45839;44.882;20.650;2023-07-30T00:50:40;10.23;;;5.90;;
59978;SDS011;45839;44.882;20.650;2023-07-30T00:53:07;9.27;;;5.70;;
59978;SDS011;45839;44.882;20.650;2023-07-30T00:55:34;10.25;;;5.18;;
59978;SDS011;45839;44.882;20.650;2023-07-30T00:58:01;9.80;;;5.60;;
59978;SDS011;45839;44.882;20.650;2023-07-30T01:00:27;8.38;;;5.35;;
59978;SDS011;45839;44.882;20.650;2023-07-30T01:02:55;8.73;;;5.22;;
59978;SDS011;45839;44.882;20.650;2023-07-30T01:05:21;10.65;;;5.63;;
59978;SDS011;45839;44.882;20.650;2023-07-30T01:07:47;9.80;;;5.85;;
59978;SDS011;45839;44.882;20.650;2023-07-30T01:10:13;10.40;;;5.40;;
59978;SDS011;45839;44.882;20.650;2023-07-30T01:12:40;8.32;;;5.35;;
59978;SDS011;45839;44.882;20.650;2023-07-30T01:15:08;8.50;;;5.60;;
59978;SDS011;45839;44.882;20.650;2023-07-30T01:17:35;9.43;;;5.72;;
59978;SDS011;45839;44.882;20.650;2023-07-30T01:20:01;8.98;;;5.57;;
59978;SDS011;45839;44.882;20.650;2023-07-30T01:22:27;7.25;;;4.65;;
59978;SDS011;45839;44.882;20.650;2023-07-30T01:24:53;8.15;;;5.38;;
59978;SDS011;45839;44.882;20.650;2023-07-30T01:27:24;8.15;;;5.00;;
59978;SDS011;45839;44.882;20.650;2023-07-30T01:29:52;8.85;;;5.20;;
59978;SDS011;45839;44.882;20.650;2023-07-30T01:32:25;7.38;;;5.03;;
59978;SDS011;45839;44.882;20.650;2023-07-30T01:34:55;8.35;;;5.10;;
59978;SDS011;45839;44.882;20.650;2023-07-30T01:37:22;8.43;;;5.07;;
59978;SDS011;45839;44.882;20.650;2023-07-30T01:39:48;10.00;;;5.53;;
59978;SDS011;45839;44.882;20.650;2023-07-30T01:42:14;10.25;;;5.07;;
59978;SDS011;45839;44.882;20.650;2023-07-30T01:44:41;8.95;;;5.47;;
59978;SDS011;45839;44.882;20.650;2023-07-30T01:47:08;8.50;;;5.13;;
59978;SDS011;45839;44.882;20.650;2023-07-30T01:49:34;8.77;;;5.00;;
59978;SDS011;45839;44.882;20.650;2023-07-30T01:52:00;7.82;;;4.75;;
59978;SDS011;45839;44.882;20.650;2023-07-30T01:54:26;10.15;;;4.88;;
59978;SDS011;45839;44.882;20.650;2023-07-30T01:56:52;10.50;;;5.00;;
59978;SDS011;45839;44.882;20.650;2023-07-30T01:59:18;9.15;;;5.60;;
59978;SDS011;45839;44.882;20.650;2023-07-30T02:01:44;11.25;;;5.60;;
59978;SDS011;45839;44.882;20.650;2023-07-30T02:04:10;10.57;;;6.03;;
59978;SDS011;45839;44.882;20.650;2023-07-30T02:06:36;8.27;;;5.05;;
59978;SDS011;45839;44.882;20.650;2023-07-30T02:09:03;8.90;;;5.80;;
59978;SDS011;45839;44.882;20.650;2023-07-30T02:11:29;9.40;;;5.85;;
59978;SDS011;45839;44.882;20.650;2023-07-30T02:13:55;8.15;;;5.78;;
59978;SDS011;45839;44.882;20.650;2023-07-30T02:16:21;10.48;;;6.35;;
59978;SDS011;45839;44.882;20.650;2023-07-30T02:18:47;9.00;;;5.90;;
59978;SDS011;45839;44.882;20.650;2023-07-30T02:21:13;7.93;;;6.00;;
59978;SDS011;45839;44.882;20.650;2023-07-30T02:23:39;7.80;;;4.95;;
59978;SDS011;45839;44.882;20.650;2023-07-30T02:26:05;7.65;;;5.03;;
59978;SDS011;45839;44.882;20.650;2023-07-30T02:28:31;9.55;;;6.35;;
59978;SDS011;45839;44.882;20.650;2023-07-30T02:30:57;7.90;;;5.80;;
59978;SDS011;45839;44.882;20.650;2023-07-30T02:33:23;9.52;;;6.25;;
59978;SDS011;45839;44.882;20.650;2023-07-30T02:35:49;7.85;;;5.30;;
59978;SDS011;45839;44.882;20.650;2023-07-30T02:38:15;10.40;;;5.20;;
59978;SDS011;45839;44.882;20.650;2023-07-30T02:40:41;9.52;;;6.00;;
59978;SDS011;45839;44.882;20.650;2023-07-30T02:43:07;9.70;;;5.55;;
59978;SDS011;45839;44.882;20.650;2023-07-30T02:45:33;7.55;;;5.05;;
59978;SDS011;45839;44.882;20.650;2023-07-30T02:47:59;8.32;;;5.93;;
59978;SDS011;45839;44.882;20.650;2023-07-30T02:50:25;9.10;;;5.85;;
59978;SDS011;45839;44.882;20.650;2023-07-30T02:52:51;8.02;;;6.20;;
59978;SDS011;45839;44.882;20.650;2023-07-30T02:55:17;8.65;;;4.88;;
59978;SDS011;45839;44.882;20.650;2023-07-30T02:57:43;8.00;;;4.78;;
59978;SDS011;45839;44.882;20.650;2023-07-30T03:00:10;7.80;;;5.00;;
59978;SDS011;45839;44.882;20.650;2023-07-30T03:02:36;7.72;;;5.38;;
59978;SDS011;45839;44.882;20.650;2023-07-30T03:05:02;10.48;;;6.10;;
59978;SDS011;45839;44.882;20.650;2023-07-30T03:07:28;10.60;;;6.40;;
59978;SDS011;45839;44.882;20.650;2023-07-30T03:09:54;7.43;;;5.10;;
59978;SDS011;45839;44.882;20.650;2023-07-30T03:12:20;9.40;;;5.43;;
59978;SDS011;45839;44.882;20.650;2023-07-30T03:14:46;8.43;;;4.88;;
59978;SDS011;45839;44.882;20.650;2023-07-30T03:17:12;8.77;;;4.38;;
59978;SDS011;45839;44.882;20.650;2023-07-30T03:19:38;8.40;;;5.40;;
59978;SDS011;45839;44.882;20.650;2023-07-30T03:22:04;8.43;;;5.85;;
59978;SDS011;45839;44.882;20.650;2023-07-30T03:24:30;6.90;;;5.13;;
59978;SDS011;45839;44.882;20.650;2023-07-30T03:26:56;7.43;;;4.90;;
59978;SDS011;45839;44.882;20.650;2023-07-30T03:29:22;8.65;;;4.90;;
59978;SDS011;45839;44.882;20.650;2023-07-30T03:31:48;9.15;;;4.70;;
59978;SDS011;45839;44.882;20.650;2023-07-30T03:34:14;8.02;;;5.10;;
59978;SDS011;45839;44.882;20.650;2023-07-30T03:36:40;10.13;;;5.97;;
59978;SDS011;45839;44.882;20.650;2023-07-30T03:39:07;7.82;;;4.75;;
59978;SDS011;45839;44.882;20.650;2023-07-30T03:41:33;9.95;;;6.47;;
59978;SDS011;45839;44.882;20.650;2023-07-30T03:44:00;8.68;;;5.97;;
59978;SDS011;45839;44.882;20.650;2023-07-30T03:46:26;11.75;;;7.55;;
59978;SDS011;45839;44.882;20.650;2023-07-30T03:48:52;9.13;;;6.32;;
59978;SDS011;45839;44.882;20.650;2023-07-30T03:51:18;10.90;;;7.00;;
59978;SDS011;45839;44.882;20.650;2023-07-30T03:53:45;8.20;;;5.90;;
59978;SDS011;45839;44.882;20.650;2023-07-30T03:56:11;10.15;;;7.05;;
59978;SDS011;45839;44.882;20.650;2023-07-30T03:58:37;9.13;;;6.53;;
59978;SDS011;45839;44.882;20.650;2023-07-30T04:01:03;12.25;;;6.68;;
59978;SDS011;45839;44.882;20.650;2023-07-30T04:03:29;8.75;;;6.65;;
59978;SDS011;45839;44.882;20.650;2023-07-30T04:05:55;12.50;;;7.07;;
59978;SDS011;45839;44.882;20.650;2023-07-30T04:08:21;11.18;;;6.30;;
59978;SDS011;45839;44.882;20.650;2023-07-30T04:10:47;8.20;;;6.40;;
59978;SDS011;45839;44.882;20.650;2023-07-30T04:13:13;9.77;;;5.93;;
59978;SDS011;45839;44.882;20.650;2023-07-30T04:15:39;12.93;;;6.45;;
59978;SDS011;45839;44.882;20.650;2023-07-30T04:18:05;11.95;;;6.85;;
59978;SDS011;45839;44.882;20.650;2023-07-30T04:20:31;19.45;;;7.20;;
59978;SDS011;45839;44.882;20.650;2023-07-30T04:22:57;11.88;;;7.25;;
59978;SDS011;45839;44.882;20.650;2023-07-30T04:25:23;9.80;;;6.25;;
59978;SDS011;45839;44.882;20.650;2023-07-30T04:27:49;10.50;;;6.38;;
59978;SDS011;45839;44.882;20.650;2023-07-30T04:30:16;9.52;;;6.80;;
59978;SDS011;45839;44.882;20.650;2023-07-30T04:32:42;8.52;;;6.20;;
59978;SDS011;45839;44.882;20.650;2023-07-30T04:35:10;11.30;;;7.50;;
59978;SDS011;45839;44.882;20.650;2023-07-30T04:37:36;10.20;;;6.93;;
59978;SDS011;45839;44.882;20.650;2023-07-30T04:40:02;9.57;;;6.72;;
59978;SDS011;45839;44.882;20.650;2023-07-30T04:42:28;10.32;;;6.60;;
59978;SDS011;45839;44.882;20.650;2023-07-30T04:44:54;10.77;;;8.05;;
59978;SDS011;45839;44.882;20.650;2023-07-30T04:47:20;9.13;;;6.25;;
59978;SDS011;45839;44.882;20.650;2023-07-30T04:49:46;8.57;;;6.32;;
59978;SDS011;45839;44.882;20.650;2023-07-30T04:52:12;11.52;;;6.63;;
59978;SDS011;45839;44.882;20.650;2023-07-30T04:54:38;10.57;;;6.85;;
59978;SDS011;45839;44.882;20.650;2023-07-30T04:57:05;13.95;;;6.25;;
59978;SDS011;45839;44.882;20.650;2023-07-30T04:59:31;10.02;;;7.07;;
59978;SDS011;45839;44.882;20.650;2023-07-30T05:01:59;10.13;;;6.88;;
59978;SDS011;45839;44.882;20.650;2023-07-30T05:04:27;10.18;;;6.82;;
59978;SDS011;45839;44.882;20.650;2023-07-30T05:06:53;10.23;;;7.20;;
59978;SDS011;45839;44.882;20.650;2023-07-30T05:09:19;11.90;;;8.52;;
59978;SDS011;45839;44.882;20.650;2023-07-30T05:11:45;11.73;;;7.97;;
59978;SDS011;45839;44.882;20.650;2023-07-30T05:14:11;11.10;;;8.73;;
59978;SDS011;45839;44.882;20.650;2023-07-30T05:16:37;9.85;;;6.93;;
59978;SDS011;45839;44.882;20.650;2023-07-30T05:19:03;10.55;;;8.27;;
59978;SDS011;45839;44.882;20.650;2023-07-30T05:21:29;11.00;;;8.65;;
59978;SDS011;45839;44.882;20.650;2023-07-30T05:23:55;9.98;;;7.45;;
59978;SDS011;45839;44.882;20.650;2023-07-30T05:26:21;9.93;;;7.28;;
59978;SDS011;45839;44.882;20.650;2023-07-30T05:28:48;9.93;;;6.93;;
59978;SDS011;45839;44.882;20.650;2023-07-30T05:31:14;10.45;;;6.75;;
59978;SDS011;45839;44.882;20.650;2023-07-30T05:33:40;10.63;;;7.47;;
59978;SDS011;45839;44.882;20.650;2023-07-30T05:36:06;9.30;;;7.07;;
59978;SDS011;45839;44.882;20.650;2023-07-30T05:38:33;10.65;;;8.57;;
59978;SDS011;45839;44.882;20.650;2023-07-30T05:41:00;15.98;;;10.15;;
59978;SDS011;45839;44.882;20.650;2023-07-30T05:43:26;14.35;;;10.50;;
59978;SDS011;45839;44.882;20.650;2023-07-30T05:45:52;13.57;;;9.98;;
59978;SDS011;45839;44.882;20.650;2023-07-30T05:48:18;10.95;;;8.75;;
59978;SDS011;45839;44.882;20.650;2023-07-30T05:50:44;11.43;;;8.93;;
59978;SDS011;45839;44.882;20.650;2023-07-30T05:53:10;11.35;;;9.80;;
59978;SDS011;45839;44.882;20.650;2023-07-30T05:55:36;14.23;;;9.90;;
59978;SDS011;45839;44.882;20.650;2023-07-30T05:58:02;11.23;;;8.52;;
59978;SDS011;45839;44.882;20.650;2023-07-30T06:00:28;14.07;;;10.50;;
59978;SDS011;45839;44.882;20.650;2023-07-30T06:02:55;9.90;;;8.77;;
59978;SDS011;45839;44.882;20.650;2023-07-30T06:05:21;10.75;;;8.10;;
59978;SDS011;45839;44.882;20.650;2023-07-30T06:07:47;9.82;;;7.80;;
59978;SDS011;45839;44.882;20.650;2023-07-30T06:10:13;11.98;;;9.60;;
59978;SDS011;45839;44.882;20.650;2023-07-30T06:12:39;10.98;;;9.20;;
59978;SDS011;45839;44.882;20.650;2023-07-30T06:15:05;13.18;;;9.68;;
59978;SDS011;45839;44.882;20.650;2023-07-30T06:17:31;13.13;;;8.73;;
59978;SDS011;45839;44.882;20.650;2023-07-30T06:19:57;12.98;;;10.32;;
59978;SDS011;45839;44.882;20.650;2023-07-30T06:22:23;11.65;;;8.98;;
59978;SDS011;45839;44.882;20.650;2023-07-30T06:24:50;9.35;;;7.80;;
59978;SDS011;45839;44.882;20.650;2023-07-30T06:27:16;11.27;;;9.20;;
59978;SDS011;45839;44.882;20.650;2023-07-30T06:29:42;10.88;;;8.63;;
59978;SDS011;45839;44.882;20.650;2023-07-30T06:32:08;10.27;;;8.57;;
59978;SDS011;45839;44.882;20.650;2023-07-30T06:34:34;13.68;;;9.88;;
59978;SDS011;45839;44.882;20.650;2023-07-30T06:37:00;11.05;;;9.23;;
59978;SDS011;45839;44.882;20.650;2023-07-30T06:39:26;10.25;;;8.52;;
59978;SDS011;45839;44.882;20.650;2023-07-30T06:41:52;15.50;;;9.60;;
59978;SDS011;45839;44.882;20.650;2023-07-30T06:44:18;12.43;;;9.38;;
59978;SDS011;45839;44.882;20.650;2023-07-30T06:46:44;12.98;;;9.70;;
59978;SDS011;45839;44.882;20.650;2023-07-30T06:49:10;13.88;;;10.25;;
59978;SDS011;45839;44.882;20.650;2023-07-30T06:51:36;11.98;;;10.25;;
59978;SDS011;45839;44.882;20.650;2023-07-30T06:54:02;12.20;;;10.07;;
59978;SDS011;45839;44.882;20.650;2023-07-30T06:56:28;11.82;;;10.15;;
59978;SDS011;45839;44.882;20.650;2023-07-30T06:58:54;11.43;;;9.35;;
59978;SDS011;45839;44.882;20.650;2023-07-30T07:01:20;12.20;;;10.43;;
59978;SDS011;45839;44.882;20.650;2023-07-30T07:03:46;16.92;;;15.02;;
59978;SDS011;45839;44.882;20.650;2023-07-30T07:06:12;26.40;;;23.67;;
59978;SDS011;45839;44.882;20.650;2023-07-30T07:08:39;14.85;;;10.63;;
59978;SDS011;45839;44.882;20.650;2023-07-30T07:11:05;24.25;;;21.65;;
59978;SDS011;45839;44.882;20.650;2023-07-30T07:13:31;23.98;;;21.45;;
59978;SDS011;45839;44.882;20.650;2023-07-30T07:15:57;13.60;;;11.43;;
59978;SDS011;45839;44.882;20.650;2023-07-30T07:18:23;26.48;;;23.70;;
59978;SDS011;45839;44.882;20.650;2023-07-30T07:20:49;43.92;;;39.08;;
59978;SDS011;45839;44.882;20.650;2023-07-30T07:23:15;44.38;;;39.83;;
59978;SDS011;45839;44.882;20.650;2023-07-30T07:25:41;64.28;;;57.53;;
59978;SDS011;45839;44.882;20.650;2023-07-30T07:28:09;48.25;;;43.25;;
59978;SDS011;45839;44.882;20.650;2023-07-30T07:30:35;15.73;;;13.43;;
59978;SDS011;45839;44.882;20.650;2023-07-30T07:33:01;14.63;;;11.88;;
59978;SDS011;45839;44.882;20.650;2023-07-30T07:35:28;22.67;;;18.58;;
59978;SDS011;45839;44.882;20.650;2023-07-30T07:37:54;16.80;;;11.27;;
59978;SDS011;45839;44.882;20.650;2023-07-30T07:40:20;55.97;;;50.17;;
59978;SDS011;45839;44.882;20.650;2023-07-30T07:42:46;25.33;;;22.23;;
59978;SDS011;45839;44.882;20.650;2023-07-30T07:45:13;12.05;;;9.07;;
59978;SDS011;45839;44.882;20.650;2023-07-30T07:47:39;13.00;;;6.53;;
59978;SDS011;45839;44.882;20.650;2023-07-30T07:50:05;11.38;;;5.63;;
59978;SDS011;45839;44.882;20.650;2023-07-30T07:52:31;7.30;;;4.93;;
59978;SDS011;45839;44.882;20.650;2023-07-30T07:54:57;19.75;;;15.35;;
59978;SDS011;45839;44.882;20.650;2023-07-30T07:57:23;65.38;;;55.83;;
59978;SDS011;45839;44.882;20.650;2023-07-30T07:59:49;14.48;;;12.55;;
59978;SDS011;45839;44.882;20.650;2023-07-30T08:02:15;10.00;;;6.30;;
59978;SDS011;45839;44.882;20.650;2023-07-30T08:04:42;7.38;;;4.97;;
59978;SDS011;45839;44.882;20.650;2023-07-30T08:07:08;7.57;;;4.28;;
59978;SDS011;45839;44.882;20.650;2023-07-30T08:09:34;10.73;;;4.60;;
59978;SDS011;45839;44.882;20.650;2023-07-30T08:12:00;11.63;;;8.07;;
59978;SDS011;45839;44.882;20.650;2023-07-30T08:14:26;7.43;;;4.40;;
59978;SDS011;45839;44.882;20.650;2023-07-30T08:16:53;11.25;;;5.55;;
59978;SDS011;45839;44.882;20.650;2023-07-30T08:19:19;7.20;;;4.80;;
59978;SDS011;45839;44.882;20.650;2023-07-30T08:21:45;7.57;;;4.95;;
59978;SDS011;45839;44.882;20.650;2023-07-30T08:24:11;10.18;;;7.97;;
59978;SDS011;45839;44.882;20.650;2023-07-30T08:26:37;8.77;;;7.22;;
59978;SDS011;45839;44.882;20.650;2023-07-30T08:29:03;24.63;;;18.65;;
59978;SDS011;45839;44.882;20.650;2023-07-30T08:31:31;18.45;;;14.32;;
59978;SDS011;45839;44.882;20.650;2023-07-30T08:33:57;13.68;;;11.27;;
59978;SDS011;45839;44.882;20.650;2023-07-30T08:36:23;157.27;;;139.18;;
59978;SDS011;45839;44.882;20.650;2023-07-30T08:38:49;392.77;;;350.45;;
59978;SDS011;45839;44.882;20.650;2023-07-30T08:41:15;433.90;;;387.85;;
59978;SDS011;45839;44.882;20.650;2023-07-30T08:43:41;458.42;;;409.65;;
59978;SDS011;45839;44.882;20.650;2023-07-30T08:46:07;214.70;;;192.02;;
59978;SDS011;45839;44.882;20.650;2023-07-30T08:48:33;75.70;;;67.20;;
59978;SDS011;45839;44.882;20.650;2023-07-30T08:50:59;66.53;;;59.38;;
59978;SDS011;45839;44.882;20.650;2023-07-30T08:53:25;17.45;;;14.52;;
59978;SDS011;45839;44.882;20.650;2023-07-30T08:55:55;18.00;;;9.55;;
59978;SDS011;45839;44.882;20.650;2023-07-30T08:58:22;11.30;;;8.55;;
59978;SDS011;45839;44.882;20.650;2023-07-30T09:00:49;6.53;;;4.38;;
59978;SDS011;45839;44.882;20.650;2023-07-30T09:03:16;11.15;;;8.20;;
59978;SDS011;45839;44.882;20.650;2023-07-30T09:05:43;10.45;;;6.78;;
59978;SDS011;45839;44.882;20.650;2023-07-30T09:08:09;7.05;;;5.13;;
59978;SDS011;45839;44.882;20.650;2023-07-30T09:10:36;8.73;;;5.25;;
59978;SDS011;45839;44.882;20.650;2023-07-30T09:13:02;11.93;;;8.00;;
59978;SDS011;45839;44.882;20.650;2023-07-30T09:15:29;8.88;;;6.97;;
59978;SDS011;45839;44.882;20.650;2023-07-30T09:18:01;8.27;;;5.88;;
59978;SDS011;45839;44.882;20.650;2023-07-30T09:20:27;12.43;;;9.55;;
59978;SDS011;45839;44.882;20.650;2023-07-30T09:22:57;18.35;;;14.73;;
59978;SDS011;45839;44.882;20.650;2023-07-30T09:25:23;12.95;;;10.88;;
59978;SDS011;45839;44.882;20.650;2023-07-30T09:27:50;10.52;;;8.38;;
59978;SDS011;45839;44.882;20.650;2023-07-30T09:30:23;9.32;;;6.30;;
59978;SDS011;45839;44.882;20.650;2023-07-30T09:35:15;8.95;;;7.55;;
59978;SDS011;45839;44.882;20.650;2023-07-30T09:37:43;12.07;;;9.80;;
59978;SDS011;45839;44.882;20.650;2023-07-30T09:40:10;9.93;;;7.47;;
59978;SDS011;45839;44.882;20.650;2023-07-30T09:42:46;13.80;;;9.98;;
59978;SDS011;45839;44.882;20.650;2023-07-30T09:45:20;14.60;;;10.35;;
59978;SDS011;45839;44.882;20.650;2023-07-30T09:47:47;7.47;;;5.75;;
59978;SDS011;45839;44.882;20.650;2023-07-30T09:50:14;9.88;;;7.78;;
59978;SDS011;45839;44.882;20.650;2023-07-30T09:52:41;8.45;;;7.47;;
59978;SDS011;45839;44.882;20.650;2023-07-30T09:55:08;9.95;;;7.22;;
59978;SDS011;45839;44.882;20.650;2023-07-30T09:57:34;9.93;;;7.53;;
59978;SDS011;45839;44.882;20.650;2023-07-30T10:00:00;19.17;;;16.08;;
59978;SDS011;45839;44.882;20.650;2023-07-30T10:02:29;11.20;;;5.97;;
59978;SDS011;45839;44.882;20.650;2023-07-30T10:04:56;9.65;;;7.22;;
59978;SDS011;45839;44.882;20.650;2023-07-30T10:07:23;17.38;;;13.48;;
59978;SDS011;45839;44.882;20.650;2023-07-30T10:09:51;11.48;;;8.40;;
59978;SDS011;45839;44.882;20.650;2023-07-30T10:12:20;8.98;;;6.28;;
59978;SDS011;45839;44.882;20.650;2023-07-30T10:14:47;7.75;;;4.80;;
59978;SDS011;45839;44.882;20.650;2023-07-30T10:17:13;7.50;;;4.70;;
59978;SDS011;45839;44.882;20.650;2023-07-30T10:19:39;9.20;;;5.05;;
59978;SDS011;45839;44.882;20.650;2023-07-30T10:22:23;8.75;;;4.90;;
59978;SDS011;45839;44.882;20.650;2023-07-30T10:27:26;6.43;;;3.85;;
59978;SDS011;45839;44.882;20.650;2023-07-30T10:30:11;7.93;;;3.38;;
59978;SDS011;45839;44.882;20.650;2023-07-30T10:35:06;22.98;;;12.90;;
59978;SDS011;45839;44.882;20.650;2023-07-30T10:37:32;35.20;;;21.45;;
59978;SDS011;45839;44.882;20.650;2023-07-30T10:39:58;35.80;;;21.63;;
59978;SDS011;45839;44.882;20.650;2023-07-30T10:42:32;37.92;;;23.13;;
59978;SDS011;45839;44.882;20.650;2023-07-30T10:44:59;15.95;;;9.40;;
59978;SDS011;45839;44.882;20.650;2023-07-30T10:47:26;44.55;;;25.95;;
59978;SDS011;45839;44.882;20.650;2023-07-30T10:49:53;19.08;;;11.98;;
59978;SDS011;45839;44.882;20.650;2023-07-30T10:52:27;6.55;;;4.25;;
59978;SDS011;45839;44.882;20.650;2023-07-30T10:57:19;17.17;;;10.13;;
59978;SDS011;45839;44.882;20.650;2023-07-30T11:00:10;30.48;;;18.08;;
59978;SDS011;45839;44.882;20.650;2023-07-30T11:02:37;12.23;;;7.85;;
59978;SDS011;45839;44.882;20.650;2023-07-30T11:05:13;8.93;;;6.70;;
59978;SDS011;45839;44.882;20.650;2023-07-30T11:07:48;9.15;;;5.75;;
59978;SDS011;45839;44.882;20.650;2023-07-30T11:10:14;8.45;;;5.53;;
59978;SDS011;45839;44.882;20.650;2023-07-30T11:12:41;10.77;;;6.90;;
59978;SDS011;45839;44.882;20.650;2023-07-30T11:15:07;12.30;;;8.02;;
59978;SDS011;45839;44.882;20.650;2023-07-30T11:17:33;8.02;;;5.35;;
59978;SDS011;45839;44.882;20.650;2023-07-30T11:19:59;7.60;;;5.18;;
59978;SDS011;45839;44.882;20.650;2023-07-30T11:22:32;7.80;;;5.40;;
59978;SDS011;45839;44.882;20.650;2023-07-30T11:24:59;8.60;;;5.20;;
59978;SDS011;45839;44.882;20.650;2023-07-30T11:27:26;10.07;;;5.25;;
59978;SDS011;45839;44.882;20.650;2023-07-30T11:29:56;8.02;;;4.60;;
59978;SDS011;45839;44.882;20.650;2023-07-30T11:32:22;7.22;;;4.63;;
59978;SDS011;45839;44.882;20.650;2023-07-30T11:34:51;6.28;;;4.35;;
59978;SDS011;45839;44.882;20.650;2023-07-30T11:37:18;8.40;;;5.95;;
59978;SDS011;45839;44.882;20.650;2023-07-30T11:39:45;7.45;;;5.07;;
59978;SDS011;45839;44.882;20.650;2023-07-30T11:42:11;8.45;;;4.97;;
59978;SDS011;45839;44.882;20.650;2023-07-30T11:44:37;8.27;;;5.13;;
59978;SDS011;45839;44.882;20.650;2023-07-30T11:47:04;9.32;;;5.10;;
59978;SDS011;45839;44.882;20.650;2023-07-30T11:49:30;8.00;;;4.75;;
59978;SDS011;45839;44.882;20.650;2023-07-30T11:52:06;11.65;;;6.47;;
59978;SDS011;45839;44.882;20.650;2023-07-30T11:54:33;11.07;;;6.40;;
59978;SDS011;45839;44.882;20.650;2023-07-30T11:56:59;14.27;;;9.40;;
59978;SDS011;45839;44.882;20.650;2023-07-30T11:59:25;11.07;;;7.65;;
59978;SDS011;45839;44.882;20.650;2023-07-30T12:01:51;11.95;;;6.90;;
59978;SDS011;45839;44.882;20.650;2023-07-30T12:04:17;7.70;;;5.45;;
59978;SDS011;45839;44.882;20.650;2023-07-30T12:06:45;7.78;;;5.60;;
59978;SDS011;45839;44.882;20.650;2023-07-30T12:09:11;9.90;;;6.07;;
59978;SDS011;45839;44.882;20.650;2023-07-30T12:14:43;6.93;;;4.97;;
59978;SDS011;45839;44.882;20.650;2023-07-30T12:17:09;7.60;;;5.03;;
59978;SDS011;45839;44.882;20.650;2023-07-30T12:19:36;6.80;;;5.00;;
59978;SDS011;45839;44.882;20.650;2023-07-30T12:22:02;8.10;;;5.20;;
59978;SDS011;45839;44.882;20.650;2023-07-30T12:24:28;7.43;;;4.95;;
59978;SDS011;45839;44.882;20.650;2023-07-30T12:26:54;6.88;;;5.10;;
59978;SDS011;45839;44.882;20.650;2023-07-30T12:29:20;9.77;;;5.45;;
59978;SDS011;45839;44.882;20.650;2023-07-30T12:31:46;8.25;;;4.95;;
59978;SDS011;45839;44.882;20.650;2023-07-30T12:34:13;8.68;;;5.13;;
59978;SDS011;45839;44.882;20.650;2023-07-30T12:36:39;7.38;;;4.80;;
59978;SDS011;45839;44.882;20.650;2023-07-30T12:39:05;8.05;;;4.97;;
59978;SDS011;45839;44.882;20.650;2023-07-30T12:41:32;8.68;;;5.10;;
59978;SDS011;45839;44.882;20.650;2023-07-30T12:43:58;7.65;;;5.35;;
59978;SDS011;45839;44.882;20.650;2023-07-30T12:46:24;10.75;;;5.95;;
59978;SDS011;45839;44.882;20.650;2023-07-30T12:48:55;6.30;;;4.80;;
59978;SDS011;45839;44.882;20.650;2023-07-30T12:51:27;9.27;;;5.57;;
59978;SDS011;45839;44.882;20.650;2023-07-30T12:53:59;8.95;;;5.75;;
59978;SDS011;45839;44.882;20.650;2023-07-30T12:56:25;18.55;;;14.35;;
59978;SDS011;45839;44.882;20.650;2023-07-30T12:58:51;35.10;;;26.83;;
59978;SDS011;45839;44.882;20.650;2023-07-30T13:01:17;27.02;;;20.65;;
59978;SDS011;45839;44.882;20.650;2023-07-30T13:03:48;15.93;;;9.82;;
59978;SDS011;45839;44.882;20.650;2023-07-30T13:06:16;89.32;;;77.38;;
59978;SDS011;45839;44.882;20.650;2023-07-30T13:08:42;314.40;;;279.88;;
59978;SDS011;45839;44.882;20.650;2023-07-30T13:11:09;88.95;;;79.63;;
59978;SDS011;45839;44.882;20.650;2023-07-30T13:13:35;115.70;;;103.03;;
59978;SDS011;45839;44.882;20.650;2023-07-30T13:16:01;24.67;;;22.02;;
59978;SDS011;45839;44.882;20.650;2023-07-30T13:18:27;16.55;;;12.98;;
59978;SDS011;45839;44.882;20.650;2023-07-30T13:20:53;25.45;;;13.65;;
59978;SDS011;45839;44.882;20.650;2023-07-30T13:23:19;11.07;;;7.82;;
59978;SDS011;45839;44.882;20.650;2023-07-30T13:25:46;20.77;;;14.07;;
59978;SDS011;45839;44.882;20.650;2023-07-30T13:28:12;17.45;;;10.40;;
59978;SDS011;45839;44.882;20.650;2023-07-30T13:30:38;8.23;;;5.50;;
59978;SDS011;45839;44.882;20.650;2023-07-30T13:33:04;6.95;;;4.15;;
59978;SDS011;45839;44.882;20.650;2023-07-30T13:35:30;6.85;;;4.20;;
59978;SDS011;45839;44.882;20.650;2023-07-30T13:37:56;6.13;;;2.80;;
59978;SDS011;45839;44.882;20.650;2023-07-30T13:40:22;6.47;;;3.35;;
59978;SDS011;45839;44.882;20.650;2023-07-30T13:42:48;7.65;;;4.55;;
59978;SDS011;45839;44.882;20.650;2023-07-30T13:45:14;7.47;;;3.55;;
59978;SDS011;45839;44.882;20.650;2023-07-30T13:47:40;7.78;;;4.65;;
59978;SDS011;45839;44.882;20.650;2023-07-30T13:50:07;11.60;;;3.40;;
59978;SDS011;45839;44.882;20.650;2023-07-30T13:52:33;6.45;;;3.03;;
59978;SDS011;45839;44.882;20.650;2023-07-30T13:54:59;5.13;;;3.20;;
59978;SDS011;45839;44.882;20.650;2023-07-30T13:57:25;5.07;;;3.17;;
59978;SDS011;45839;44.882;20.650;2023-07-30T13:59:52;5.43;;;2.95;;
59978;SDS011;45839;44.882;20.650;2023-07-30T14:02:18;4.90;;;3.03;;
59978;SDS011;45839;44.882;20.650;2023-07-30T14:04:44;5.50;;;3.20;;
59978;SDS011;45839;44.882;20.650;2023-07-30T14:07:10;6.53;;;3.40;;
59978;SDS011;45839;44.882;20.650;2023-07-30T14:09:36;6.68;;;3.25;;
59978;SDS011;45839;44.882;20.650;2023-07-30T14:12:03;8.13;;;3.33;;
59978;SDS011;45839;44.882;20.650;2023-07-30T14:14:29;6.28;;;3.53;;
59978;SDS011;45839;44.882;20.650;2023-07-30T14:16:55;4.93;;;2.80;;
59978;SDS011;45839;44.882;20.650;2023-07-30T14:19:22;7.63;;;3.40;;
59978;SDS011;45839;44.882;20.650;2023-07-30T14:21:48;9.45;;;3.20;;
59978;SDS011;45839;44.882;20.650;2023-07-30T14:24:14;5.57;;;2.90;;
59978;SDS011;45839;44.882;20.650;2023-07-30T14:26:40;5.70;;;3.38;;
59978;SDS011;45839;44.882;20.650;2023-07-30T14:29:07;5.70;;;3.00;;
59978;SDS011;45839;44.882;20.650;2023-07-30T14:31:33;6.00;;;3.45;;
59978;SDS011;45839;44.882;20.650;2023-07-30T14:33:59;5.10;;;2.60;;
59978;SDS011;45839;44.882;20.650;2023-07-30T14:36:25;7.13;;;2.65;;